createdAt,value
2023-03-07T00:00:07.437Z,4.75
2023-03-07T00:01:11.129Z,8.00
2023-03-07T00:02:17.500Z,8.50
2023-03-07T00:03:21.258Z,4.50
2023-03-07T00:04:27.408Z,4.00
2023-03-07T00:05:31.764Z,4.50
2023-03-07T00:06:35.125Z,4.75
2023-03-07T00:07:38.783Z,5.50
2023-03-07T00:08:43.844Z,4.50
2023-03-07T00:09:47.769Z,3.50
2023-03-07T00:10:52.291Z,4.00
2023-03-07T00:11:56.058Z,4.50
2023-03-07T00:12:59.997Z,4.50
2023-03-07T00:14:04.081Z,4.25
2023-03-07T00:15:08.143Z,4.25
2023-03-07T00:16:11.965Z,5.25
2023-03-07T00:17:15.884Z,4.25
2023-03-07T00:18:19.052Z,4.50
2023-03-07T00:19:22.251Z,3.00
2023-03-07T00:20:26.193Z,2.50
2023-03-07T00:21:30.388Z,3.50
2023-03-07T00:22:34.159Z,3.00
2023-03-07T00:23:38.407Z,3.00
2023-03-07T00:24:42.116Z,4.25
2023-03-07T00:25:46.114Z,5.00
2023-03-07T00:26:50.236Z,4.25
2023-03-07T00:27:53.429Z,3.00
2023-03-07T00:28:57.334Z,1.75
2023-03-07T00:30:01.758Z,3.50
2023-03-07T00:31:05.774Z,7.00
2023-03-07T00:32:09.581Z,5.00
2023-03-07T00:33:13.840Z,6.25
2023-03-07T00:34:17.452Z,6.00
2023-03-07T00:35:21.062Z,3.50
2023-03-07T00:36:25.995Z,6.50
2023-03-07T00:37:32.404Z,8.00
2023-03-07T00:38:39.621Z,5.50
2023-03-07T00:39:43.629Z,5.00
2023-03-07T00:40:47.376Z,3.50
2023-03-07T00:41:51.524Z,3.50
2023-03-07T00:42:55.616Z,3.00
2023-03-07T00:44:00.324Z,4.50
2023-03-07T00:45:04.484Z,3.75
2023-03-07T00:46:08.396Z,4.50
2023-03-07T00:47:12.574Z,9.00
2023-03-07T00:48:17.033Z,7.75
2023-03-07T00:49:21.074Z,6.00
2023-03-07T00:50:24.899Z,5.25
2023-03-07T00:51:29.050Z,3.00
2023-03-07T00:52:33.197Z,2.00
2023-03-07T00:53:39.154Z,3.00
2023-03-07T00:54:42.806Z,3.00
2023-03-07T00:55:46.561Z,3.50
2023-03-07T00:56:50.363Z,4.50
2023-03-07T00:57:54.172Z,3.75
2023-03-07T00:58:58.218Z,6.00
2023-03-07T01:00:02.137Z,10.50
2023-03-07T01:02:22.165Z,9.00
2023-03-07T01:03:25.786Z,8.50
2023-03-07T01:04:29.723Z,5.00
2023-03-07T01:06:49.478Z,3.00
2023-03-07T01:07:53.308Z,5.00
2023-03-07T01:09:01.268Z,5.50
2023-03-07T01:10:05.575Z,4.00
2023-03-07T01:11:09.370Z,4.25
2023-03-07T01:12:13.676Z,6.50
2023-03-07T01:14:28.502Z,6.00
2023-03-07T01:15:32.133Z,5.75
2023-03-07T01:16:35.615Z,6.00
2023-03-07T01:18:55.548Z,6.75
2023-03-07T01:19:59.339Z,8.75
2023-03-07T01:21:03.180Z,7.00
2023-03-07T01:22:06.969Z,6.00
2023-03-07T01:23:10.773Z,9.25
2023-03-07T01:25:31.101Z,12.75
2023-03-07T01:26:35.297Z,13.50
2023-03-07T01:27:39.101Z,12.50
2023-03-07T01:28:43.537Z,9.00
2023-03-07T01:29:47.503Z,3.50
2023-03-07T01:32:08.243Z,11.00
2023-03-07T01:33:12.594Z,4.25
2023-03-07T01:34:16.505Z,3.00
2023-03-07T01:35:21.099Z,4.75
2023-03-07T01:36:25.363Z,5.75
2023-03-07T01:37:29.401Z,4.00
2023-03-07T01:38:33.606Z,3.50
2023-03-07T01:39:38.000Z,6.75
2023-03-07T01:41:58.498Z,4.75
2023-03-07T01:43:02.921Z,4.25
2023-03-07T01:44:06.909Z,5.00
2023-03-07T01:45:18.957Z,3.00
2023-03-07T02:51:30.700Z,3.50
2023-03-07T02:52:36.146Z,5.00
2023-03-07T02:53:40.232Z,2.50
2023-03-07T02:54:44.485Z,1.00
2023-03-07T02:55:48.774Z,1.50
2023-03-07T02:56:55.593Z,2.00
2023-03-07T02:57:59.917Z,1.75
2023-03-07T02:59:04.021Z,3.00
2023-03-07T03:00:10.192Z,4.00
2023-03-07T03:01:14.642Z,4.50
2023-03-07T03:02:18.590Z,4.50
2023-03-07T03:03:22.027Z,6.25
2023-03-07T03:04:25.196Z,6.00
2023-03-07T03:05:30.221Z,5.40
2023-03-07T03:06:45.515Z,5.50
2023-03-07T03:07:49.252Z,5.25
2023-03-07T03:08:52.635Z,1.50
2023-03-07T03:09:55.999Z,2.00
2023-03-07T03:10:59.532Z,1.00
2023-03-07T03:12:03.391Z,0.75
2023-03-07T03:13:06.421Z,1.50
2023-03-07T03:14:13.029Z,1.75
2023-03-07T03:15:16.983Z,2.00
2023-03-07T03:16:20.599Z,1.00
2023-03-07T03:17:24.353Z,1.50
2023-03-07T03:24:31.882Z,2.00
2023-03-07T03:25:38.654Z,5.00
2023-03-07T03:26:42.920Z,3.50
2023-03-07T03:27:47.291Z,3.00
2023-03-07T03:28:51.543Z,4.00
2023-03-07T03:29:55.879Z,2.50
2023-03-07T03:31:00.557Z,2.50
2023-03-07T03:32:05.079Z,3.00
2023-03-07T03:33:09.296Z,2.25
2023-03-07T03:34:13.618Z,5.50
2023-03-07T03:35:18.709Z,5.50
2023-03-07T03:36:27.053Z,2.50
2023-03-07T03:37:30.222Z,2.00
2023-03-07T03:38:34.710Z,2.25
2023-03-07T03:39:40.781Z,2.50
2023-03-07T03:40:45.493Z,2.50
2023-03-07T03:41:50.419Z,2.50
2023-03-07T03:42:54.516Z,2.00
2023-03-07T03:43:58.987Z,3.00
2023-03-07T03:45:03.936Z,2.50
2023-03-07T03:46:08.660Z,2.00
2023-03-07T03:47:15.157Z,3.50
2023-03-07T03:48:20.048Z,2.50
2023-03-07T03:49:24.196Z,2.75
2023-03-07T03:50:28.884Z,1.50
2023-03-07T03:51:33.901Z,0.50
2023-03-07T03:52:40.350Z,1.25
2023-03-07T03:53:45.070Z,2.00
2023-03-07T03:54:48.457Z,1.00
2023-03-07T03:55:52.898Z,2.00
2023-03-07T03:57:05.482Z,1.50
2023-03-07T03:58:24.567Z,1.50
2023-03-07T03:59:29.859Z,1.00
2023-03-07T04:00:35.986Z,2.00
2023-03-07T04:01:40.591Z,1.00
2023-03-07T04:02:46.563Z,1.50
2023-03-07T04:03:51.215Z,2.00
2023-03-07T04:04:55.683Z,1.50
2023-03-07T04:06:02.476Z,2.00
2023-03-07T04:07:08.538Z,2.00
2023-03-07T04:08:12.940Z,1.50
2023-03-07T04:09:17.484Z,1.00
2023-03-07T04:10:33.172Z,1.50
2023-03-07T04:11:38.253Z,2.00
2023-03-07T04:12:42.774Z,2.00
2023-03-07T04:13:52.297Z,1.75
2023-03-07T04:14:56.290Z,1.50
2023-03-07T04:15:59.967Z,2.50
2023-03-07T04:17:05.026Z,2.50
2023-03-07T04:18:11.559Z,1.50
2023-03-07T04:19:16.998Z,2.00
2023-03-07T04:20:20.607Z,2.50
2023-03-07T04:21:27.640Z,3.00
2023-03-07T04:22:35.159Z,3.25
2023-03-07T04:23:42.345Z,3.50
2023-03-07T04:24:56.227Z,2.25
2023-03-07T04:26:10.270Z,1.75
2023-03-07T04:27:19.529Z,1.25
2023-03-07T04:28:29.766Z,1.50
2023-03-07T04:37:35.354Z,1.00
2023-03-07T04:38:40.071Z,3.00
2023-03-07T04:39:48.692Z,2.00
2023-03-07T04:41:05.970Z,1.00
2023-03-07T04:42:16.267Z,1.50
2023-03-07T04:43:28.132Z,3.00
2023-03-07T04:44:30.920Z,2.25
2023-03-07T04:45:34.905Z,1.75
2023-03-07T04:46:38.426Z,2.00
2023-03-07T04:47:44.562Z,3.00
2023-03-07T04:48:51.024Z,2.50
2023-03-07T04:49:54.915Z,2.50
2023-03-07T04:50:59.342Z,2.00
2023-03-07T04:52:02.923Z,2.00
2023-03-07T04:53:13.367Z,3.00
2023-03-07T04:54:25.348Z,2.50
2023-03-07T04:55:43.910Z,0.50
2023-03-07T04:58:12.472Z,2.00
2023-03-07T04:59:26.183Z,1.75
2023-03-07T05:00:44.527Z,1.50
2023-03-07T05:01:51.252Z,1.50
2023-03-07T05:04:15.807Z,0.50
2023-03-07T05:05:24.194Z,0.50
2023-03-07T05:06:34.153Z,3.50
2023-03-07T05:09:11.866Z,3.50
2023-03-07T05:11:48.115Z,1.50
2023-03-07T05:12:52.896Z,1.75
2023-03-07T05:13:56.310Z,2.00
2023-03-07T05:15:00.235Z,2.00
2023-03-07T05:16:03.791Z,2.25
2023-03-07T05:17:07.107Z,1.50
2023-03-07T05:18:10.564Z,2.00
2023-03-07T05:19:14.083Z,2.50
2023-03-07T05:20:21.045Z,2.25
2023-03-07T05:21:28.722Z,1.75
2023-03-07T05:22:32.306Z,1.00
2023-03-07T05:23:47.735Z,0.00
2023-03-07T05:24:51.622Z,2.00
2023-03-07T05:33:16.782Z,1.50
2023-03-07T05:34:21.191Z,12.50
2023-03-07T05:36:48.369Z,3.25
2023-03-07T05:37:58.462Z,2.00
2023-03-07T05:39:05.726Z,2.75
2023-03-07T05:40:14.190Z,2.50
2023-03-07T05:41:17.111Z,2.00
2023-03-07T05:43:40.752Z,1.00
2023-03-07T05:46:05.088Z,1.00
2023-03-07T05:48:31.847Z,2.50
2023-03-07T05:49:50.700Z,0.75
2023-03-07T05:51:09.067Z,1.50
2023-03-07T06:02:24.243Z,5.00
2023-03-07T06:03:30.195Z,0.50
2023-03-07T06:04:41.329Z,0.50
2023-03-07T06:05:44.820Z,1.00
2023-03-07T06:15:06.901Z,1.75
2023-03-07T06:16:11.504Z,1.50
2023-03-07T07:15:11.850Z,3.75
2023-03-07T07:21:50.429Z,2.75
2023-03-07T07:22:54.767Z,2.25
2023-03-07T07:34:53.389Z,2.75
2023-03-07T07:36:05.000Z,4.00
2023-03-07T07:39:50.641Z,3.25
2023-03-07T07:42:16.497Z,3.50
2023-03-07T07:43:30.434Z,5.25
2023-03-07T07:45:58.934Z,5.50
2023-03-07T07:48:23.075Z,7.00
2023-03-07T07:49:29.950Z,4.00
2023-03-07T07:50:38.639Z,6.00
2023-03-07T07:54:22.794Z,7.00
2023-03-07T07:55:25.603Z,6.00
2023-03-07T07:56:39.816Z,5.50
2023-03-07T07:59:10.846Z,7.00
2023-03-07T08:00:14.998Z,6.00
2023-03-07T08:02:49.039Z,8.00
2023-03-07T08:07:57.215Z,7.25
2023-03-07T08:10:19.263Z,8.00
2023-03-07T08:12:43.711Z,5.00
2023-03-07T08:13:51.712Z,6.50
2023-03-07T08:14:55.096Z,10.00
2023-03-07T08:17:22.188Z,5.50
2023-03-07T08:19:56.063Z,11.00
2023-03-07T08:20:59.549Z,6.50
2023-03-07T08:22:03.236Z,5.50
2023-03-07T08:23:07.040Z,8.00
2023-03-07T08:24:16.489Z,7.25
2023-03-07T08:25:21.071Z,6.50
2023-03-07T08:27:46.403Z,6.75
2023-03-07T08:28:49.981Z,5.75
2023-03-07T08:29:55.764Z,8.00
2023-03-07T08:33:45.603Z,8.50
2023-03-07T08:34:52.798Z,8.00
2023-03-07T08:36:03.299Z,8.00
2023-03-07T08:37:12.392Z,6.00
2023-03-07T08:41:41.492Z,6.50
2023-03-07T08:44:09.434Z,8.25
2023-03-07T08:46:37.749Z,10.50
2023-03-07T08:47:46.588Z,11.00
2023-03-07T08:51:49.237Z,8.75
2023-03-07T08:53:03.153Z,9.00
2023-03-07T08:54:13.050Z,8.50
2023-03-07T08:56:40.740Z,11.75
2023-03-07T08:57:43.706Z,6.75
2023-03-07T09:02:56.030Z,11.25
2023-03-07T09:05:20.137Z,11.00
2023-03-07T09:06:23.322Z,8.25
2023-03-07T09:07:26.217Z,7.25
2023-03-07T09:08:33.648Z,8.00
2023-03-07T09:09:37.968Z,9.50
2023-03-07T09:13:23.960Z,9.25
2023-03-07T09:14:26.835Z,8.00
2023-03-07T09:15:34.350Z,10.25
2023-03-07T09:19:27.645Z,8.50
2023-03-07T09:28:20.523Z,10.50
2023-03-07T09:30:49.380Z,10.00
2023-03-07T09:31:54.944Z,8.50
2023-03-07T09:33:02.272Z,9.25
2023-03-07T09:36:46.805Z,7.25
2023-03-07T09:37:50.076Z,10.25
2023-03-07T09:38:58.056Z,11.00
2023-03-07T09:40:00.387Z,12.75
2023-03-07T09:43:47.060Z,14.25
2023-03-07T09:44:50.287Z,10.25
2023-03-07T09:52:43.822Z,11.00
2023-03-07T09:53:46.720Z,13.00
2023-03-07T09:55:06.699Z,11.25
2023-03-07T10:00:22.765Z,13.25
2023-03-07T10:08:15.671Z,12.00
2023-03-07T10:09:21.833Z,11.00
2023-03-07T10:17:10.096Z,10.50
2023-03-07T10:18:19.744Z,9.25
2023-03-07T10:22:03.773Z,12.50
2023-03-07T10:23:06.571Z,10.75
2023-03-07T10:24:26.467Z,9.75
2023-03-07T10:26:49.896Z,11.00
2023-03-07T10:27:53.121Z,7.50
2023-03-07T10:28:56.557Z,7.00
2023-03-07T10:29:59.378Z,10.50
2023-03-07T10:31:11.007Z,12.25
2023-03-07T10:32:19.066Z,10.50
2023-03-07T10:33:21.465Z,7.50
2023-03-07T10:34:27.339Z,11.80
2023-03-07T10:35:28.825Z,12.00
2023-03-07T10:36:31.783Z,9.50
2023-03-07T10:37:43.979Z,9.00
2023-03-07T10:38:47.029Z,12.50
2023-03-07T10:41:12.969Z,9.50
2023-03-07T10:42:25.726Z,9.00
2023-03-07T10:44:58.343Z,12.00
2023-03-07T10:46:01.340Z,9.00
2023-03-07T10:47:04.266Z,12.00
2023-03-07T10:48:13.333Z,13.00
2023-03-07T10:49:16.223Z,9.50
2023-03-07T10:50:26.667Z,6.25
2023-03-07T10:51:32.568Z,6.75
2023-03-07T10:52:37.142Z,7.50
2023-03-07T10:53:40.119Z,10.50
2023-03-07T10:54:44.220Z,10.50
2023-03-07T10:57:07.806Z,9.00
2023-03-07T10:59:37.026Z,8.75
2023-03-07T11:02:00.730Z,8.50
2023-03-07T11:03:03.921Z,8.50
2023-03-07T11:04:08.940Z,8.75
2023-03-07T11:05:12.001Z,9.00
2023-03-07T11:06:16.003Z,11.00
2023-03-07T11:07:23.573Z,11.00
2023-03-07T11:08:27.770Z,8.25
2023-03-07T11:10:52.107Z,11.25
2023-03-07T11:12:00.677Z,8.00
2023-03-07T11:13:07.247Z,7.50
2023-03-07T11:15:33.296Z,9.00
2023-03-07T11:16:37.352Z,9.75
2023-03-07T11:17:40.227Z,9.50
2023-03-07T11:18:47.769Z,8.75
2023-03-07T11:19:50.050Z,8.00
2023-03-07T11:21:09.285Z,8.00
2023-03-07T11:22:18.063Z,8.75
2023-03-07T11:24:51.178Z,9.00
2023-03-07T11:25:54.099Z,8.75
2023-03-07T11:28:17.267Z,9.75
2023-03-07T11:29:20.041Z,8.00
2023-03-07T11:30:23.278Z,7.25
2023-03-07T11:32:46.423Z,10.00
2023-03-07T11:33:59.115Z,10.25
2023-03-07T11:34:53.818Z,10.00
2023-03-07T11:36:01.120Z,9.00
2023-03-07T11:37:03.955Z,10.75
2023-03-07T11:38:06.780Z,13.25
2023-03-07T11:40:50.200Z,12.00
2023-03-07T11:41:54.026Z,13.50
2023-03-07T11:55:04.403Z,14.50
2023-03-07T11:56:08.352Z,20.00
2023-03-07T11:57:11.820Z,12.00
2023-03-07T11:58:15.300Z,10.50
2023-03-07T11:59:19.060Z,9.75
2023-03-07T12:00:23.171Z,9.50
2023-03-07T12:01:27.367Z,10.00
2023-03-07T12:02:30.965Z,10.25
2023-03-07T12:03:34.959Z,11.00
2023-03-07T12:04:43.696Z,11.50
2023-03-07T12:05:50.915Z,11.75
2023-03-07T12:06:54.759Z,8.25
2023-03-07T12:08:05.933Z,8.25
2023-03-07T12:09:09.415Z,9.00
2023-03-07T12:10:16.045Z,7.75
2023-03-07T12:11:19.380Z,8.50
2023-03-07T12:12:23.163Z,10.00
2023-03-07T12:13:27.261Z,12.25
2023-03-07T12:14:30.437Z,11.00
2023-03-07T12:15:34.746Z,10.50
2023-03-07T12:16:39.561Z,10.50
2023-03-07T12:17:43.078Z,9.75
2023-03-07T12:18:46.976Z,8.00
2023-03-07T12:19:51.401Z,9.50
2023-03-07T12:20:55.111Z,10.00
2023-03-07T12:21:59.778Z,11.50
2023-03-07T12:23:03.287Z,14.00
2023-03-07T12:24:10.750Z,13.00
2023-03-07T12:25:14.152Z,11.00
2023-03-07T12:26:21.629Z,9.50
2023-03-07T12:27:26.925Z,9.50
2023-03-07T12:28:30.542Z,9.75
2023-03-07T12:29:34.385Z,11.00
2023-03-07T12:30:38.051Z,9.00
2023-03-07T12:31:42.198Z,7.25
2023-03-07T12:32:45.852Z,8.75
2023-03-07T12:33:49.535Z,9.25
2023-03-07T12:34:53.440Z,11.75
2023-03-07T12:35:57.452Z,12.00
2023-03-07T12:37:01.530Z,8.50
2023-03-07T12:38:09.822Z,8.75
2023-03-07T12:39:13.420Z,9.25
2023-03-07T12:40:17.160Z,8.75
2023-03-07T12:41:20.745Z,9.50
2023-03-07T12:42:24.513Z,8.25
2023-03-07T12:43:28.095Z,8.00
2023-03-07T12:44:34.240Z,11.00
2023-03-07T12:45:38.834Z,9.75
2023-03-07T12:46:42.857Z,9.50
2023-03-07T12:47:46.871Z,11.50
2023-03-07T12:48:50.427Z,11.25
2023-03-07T12:49:54.682Z,8.50
2023-03-07T12:50:58.457Z,7.75
2023-03-07T12:52:02.976Z,13.50
2023-03-07T12:53:06.327Z,14.00
2023-03-07T12:54:10.165Z,10.00
2023-03-07T12:55:13.639Z,9.00
2023-03-07T12:56:17.184Z,8.50
2023-03-07T12:57:21.358Z,9.00
2023-03-07T12:58:25.689Z,7.00
2023-03-07T12:59:29.572Z,8.50
2023-03-07T13:00:33.029Z,8.75
2023-03-07T13:01:36.414Z,10.50
2023-03-07T13:02:42.911Z,9.50
2023-03-07T13:03:46.317Z,10.00
2023-03-07T13:04:49.467Z,9.25
2023-03-07T13:05:53.882Z,9.25
2023-03-07T13:06:57.237Z,9.75
2023-03-07T13:08:02.263Z,11.00
2023-03-07T13:09:07.911Z,10.75
2023-03-07T13:10:11.091Z,8.50
2023-03-07T13:11:15.082Z,11.80
2023-03-07T13:12:18.498Z,10.00
2023-03-07T13:13:21.854Z,7.50
2023-03-07T13:14:26.491Z,7.00
2023-03-07T13:15:30.278Z,7.25
2023-03-07T13:16:33.994Z,7.75
2023-03-07T13:17:37.456Z,7.00
2023-03-07T13:18:41.151Z,6.25
2023-03-07T13:19:44.468Z,8.25
2023-03-07T13:20:48.154Z,8.50
2023-03-07T13:21:52.338Z,6.75
2023-03-07T13:22:55.864Z,6.50
2023-03-07T13:24:00.129Z,6.25
2023-03-07T13:25:04.149Z,6.00
2023-03-07T13:26:07.619Z,5.00
2023-03-07T13:27:11.036Z,5.75
2023-03-07T13:28:14.735Z,5.00
2023-03-07T13:29:18.705Z,5.25
2023-03-07T13:30:24.078Z,4.50
2023-03-07T13:31:27.214Z,3.50
2023-03-07T13:32:30.639Z,5.50
2023-03-07T13:33:33.715Z,4.75
2023-03-07T13:34:37.157Z,3.50
2023-03-07T13:35:41.112Z,3.25
2023-03-07T13:36:45.171Z,3.25
2023-03-07T13:37:48.597Z,3.50
2023-03-07T13:38:51.873Z,4.00
2023-03-07T13:39:55.334Z,4.00
2023-03-07T13:40:58.508Z,4.50
2023-03-07T13:42:02.079Z,3.00
2023-03-07T13:43:06.142Z,2.50
2023-03-07T13:44:09.513Z,3.75
2023-03-07T13:45:15.226Z,3.00
2023-03-07T13:46:19.151Z,4.00
2023-03-07T13:47:31.675Z,3.25
2023-03-07T13:48:35.457Z,3.50
2023-03-07T13:49:39.545Z,2.50
2023-03-07T13:50:42.831Z,2.00
2023-03-07T13:51:46.386Z,3.00
2023-03-07T13:52:49.889Z,3.50
2023-03-07T13:53:53.672Z,2.50
2023-03-07T13:54:57.366Z,3.25
2023-03-07T13:56:00.767Z,2.50
2023-03-07T13:57:04.152Z,3.00
2023-03-07T13:58:07.742Z,3.50
2023-03-07T13:59:11.343Z,2.75
2023-03-07T14:00:15.254Z,2.00
2023-03-07T14:01:18.625Z,2.00
2023-03-07T14:02:22.213Z,3.00
2023-03-07T14:03:27.718Z,4.50
2023-03-07T14:04:39.861Z,4.50
2023-03-07T14:05:35.664Z,2.50
2023-03-07T14:06:39.040Z,2.00
2023-03-07T14:07:42.538Z,1.00
2023-03-07T14:08:46.018Z,2.00
2023-03-07T14:09:49.930Z,3.50
2023-03-07T14:10:54.447Z,3.25
2023-03-07T14:12:02.775Z,3.50
2023-03-07T14:13:06.528Z,3.75
2023-03-07T14:14:10.113Z,3.00
2023-03-07T14:15:13.627Z,2.00
2023-03-07T14:16:17.502Z,1.50
2023-03-07T14:17:20.752Z,1.00
2023-03-07T14:18:23.995Z,1.50
2023-03-07T14:19:28.075Z,1.00
2023-03-07T14:20:31.572Z,1.50
2023-03-07T14:21:35.080Z,1.25
2023-03-07T14:22:38.440Z,1.50
2023-03-07T14:23:42.521Z,2.50
2023-03-07T14:24:46.040Z,2.00
2023-03-07T14:25:51.344Z,2.75
2023-03-07T14:26:55.273Z,4.50
2023-03-07T14:27:58.451Z,3.50
2023-03-07T14:29:02.102Z,3.00
2023-03-07T14:30:05.534Z,2.50
2023-03-07T14:31:08.681Z,3.00
2023-03-07T14:32:13.076Z,3.50
2023-03-07T14:33:16.304Z,2.00
2023-03-07T14:34:19.619Z,1.50
2023-03-07T14:35:23.315Z,3.00
2023-03-07T14:36:26.478Z,2.50
2023-03-07T14:37:30.092Z,1.75
2023-03-07T14:38:33.457Z,2.75
2023-03-07T14:39:36.771Z,2.25
2023-03-07T14:40:42.780Z,2.50
2023-03-07T14:41:46.179Z,3.50
2023-03-07T14:42:50.275Z,2.00
2023-03-07T14:43:55.501Z,2.00
2023-03-07T14:44:58.789Z,2.00
2023-03-07T14:46:03.766Z,1.50
2023-03-07T14:47:07.192Z,1.50
2023-03-07T14:48:10.584Z,2.00
2023-03-07T14:49:14.082Z,3.25
2023-03-07T14:50:17.755Z,4.00
2023-03-07T14:51:21.171Z,3.00
2023-03-07T14:52:31.169Z,2.00
2023-03-07T14:53:30.067Z,1.75
2023-03-07T14:54:33.892Z,0.75
2023-03-07T14:55:37.171Z,1.00
2023-03-07T14:56:41.582Z,1.50
2023-03-07T14:57:45.458Z,0.50
2023-03-07T14:58:49.768Z,1.25
2023-03-07T14:59:53.767Z,2.00
2023-03-07T15:00:58.374Z,2.00
2023-03-07T15:02:02.411Z,3.00
2023-03-07T15:03:06.596Z,2.00
2023-03-07T15:04:10.149Z,0.50
2023-03-07T15:05:14.069Z,2.00
2023-03-07T15:06:17.791Z,1.50
2023-03-07T15:07:21.071Z,1.00
2023-03-07T15:08:25.153Z,2.00
2023-03-07T15:09:28.665Z,2.50
2023-03-07T15:10:32.811Z,1.50
2023-03-07T15:11:37.178Z,1.75
2023-03-07T15:12:40.669Z,2.50
2023-03-07T15:13:44.961Z,2.00
2023-03-07T15:14:49.059Z,0.75
2023-03-07T15:15:52.625Z,1.50
2023-03-07T15:16:57.203Z,0.75
2023-03-07T15:18:02.110Z,1.00
2023-03-07T15:19:05.510Z,0.50
2023-03-07T15:20:08.868Z,1.00
2023-03-07T15:21:15.345Z,1.00
2023-03-07T15:22:18.418Z,2.00
2023-03-07T15:23:23.224Z,2.00
2023-03-07T15:24:29.347Z,2.00
2023-03-07T15:25:33.082Z,1.00
2023-03-07T15:26:36.454Z,1.00
2023-03-07T15:27:40.055Z,1.00
2023-03-07T15:28:43.163Z,1.00
2023-03-07T15:29:46.119Z,0.75
2023-03-07T15:30:51.122Z,2.00
2023-03-07T15:31:54.841Z,2.00
2023-03-07T15:32:58.322Z,1.50
2023-03-07T15:34:01.603Z,1.50
2023-03-07T15:35:04.823Z,1.75
2023-03-07T15:36:09.140Z,2.40
2023-03-07T15:37:12.516Z,3.00
2023-03-07T15:38:16.376Z,1.75
2023-03-07T15:39:20.199Z,0.00
2023-03-07T15:40:23.988Z,0.50
2023-03-07T15:41:30.040Z,0.25
2023-03-07T15:42:34.034Z,1.25
2023-03-07T15:43:44.992Z,1.00
2023-03-07T15:44:50.746Z,1.00
2023-03-07T15:45:54.774Z,1.50
2023-03-07T15:47:00.163Z,1.50
2023-03-07T15:48:03.444Z,2.50
2023-03-07T15:50:27.530Z,1.00
2023-03-07T15:52:52.562Z,1.75
2023-03-07T15:53:56.543Z,2.50
2023-03-07T15:55:00.220Z,1.75
2023-03-07T15:57:26.655Z,0.50
2023-03-07T15:58:30.148Z,2.00
2023-03-07T15:59:34.158Z,1.50
2023-03-07T16:00:37.777Z,1.00
2023-03-07T16:01:41.903Z,2.25
2023-03-07T16:02:45.678Z,1.75
2023-03-07T16:03:50.716Z,1.00
2023-03-07T16:04:54.218Z,1.00
2023-03-07T16:05:57.981Z,0.00
2023-03-07T16:07:03.104Z,2.25
2023-03-07T16:08:06.773Z,2.25
2023-03-07T16:09:10.569Z,2.00
2023-03-07T16:10:14.169Z,2.75
2023-03-07T16:12:43.174Z,1.00
2023-03-07T16:13:46.656Z,1.00
2023-03-07T16:14:50.263Z,1.00
2023-03-07T16:15:55.029Z,2.50
2023-03-07T16:16:59.413Z,2.50
2023-03-07T16:18:03.155Z,2.00
2023-03-07T16:19:07.466Z,1.50
2023-03-07T16:20:11.161Z,0.00
2023-03-07T16:21:14.745Z,1.00
2023-03-07T16:22:21.613Z,1.00
2023-03-07T16:23:26.348Z,1.00
2023-03-07T16:24:29.928Z,1.50
2023-03-07T16:25:34.433Z,1.50
2023-03-07T16:26:38.332Z,1.25
2023-03-07T16:27:42.095Z,1.75
2023-03-07T16:28:45.422Z,2.00
2023-03-07T16:30:06.537Z,1.00
2023-03-07T16:31:10.431Z,2.00
2023-03-07T16:32:13.570Z,1.50
2023-03-07T16:33:19.141Z,1.50
2023-03-07T16:34:22.529Z,1.50
2023-03-07T16:35:26.440Z,2.00
2023-03-07T16:36:31.143Z,1.00
2023-03-07T16:37:36.061Z,2.00
2023-03-07T16:38:40.812Z,1.00
2023-03-07T16:39:44.476Z,2.00
2023-03-07T16:40:48.173Z,2.00
2023-03-07T16:41:51.553Z,2.50
2023-03-07T16:42:55.067Z,2.50
2023-03-07T16:43:58.469Z,1.50
2023-03-07T16:45:02.383Z,2.25
2023-03-07T16:46:06.813Z,1.75
2023-03-07T16:47:10.435Z,0.50
2023-03-07T16:48:14.332Z,1.50
2023-03-07T16:49:17.814Z,3.00
2023-03-07T16:50:22.432Z,2.00
2023-03-07T16:51:26.057Z,0.50
2023-03-07T16:52:29.406Z,0.50
2023-03-07T16:53:34.614Z,2.00
2023-03-07T16:54:38.044Z,2.50
2023-03-07T16:55:41.835Z,2.50
2023-03-07T16:56:46.152Z,1.00
2023-03-07T16:57:49.747Z,1.50
2023-03-07T16:58:53.049Z,2.00
2023-03-07T16:59:56.643Z,2.50
2023-03-07T17:01:00.721Z,2.00
2023-03-07T17:02:04.264Z,2.50
2023-03-07T17:03:08.882Z,2.00
2023-03-07T17:04:13.636Z,2.00
2023-03-07T17:05:16.817Z,2.25
2023-03-07T17:06:23.471Z,1.00
2023-03-07T17:07:25.645Z,1.00
2023-03-07T17:08:28.954Z,1.50
2023-03-07T17:09:32.622Z,1.50
2023-03-07T17:10:36.937Z,1.50
2023-03-07T17:11:40.412Z,1.50
2023-03-07T17:12:44.961Z,2.50
2023-03-07T17:13:48.654Z,1.50
2023-03-07T17:14:52.620Z,1.00
2023-03-07T17:15:56.267Z,2.25
2023-03-07T17:17:00.930Z,2.25
2023-03-07T17:18:05.442Z,1.75
2023-03-07T17:19:09.228Z,1.50
2023-03-07T17:20:12.544Z,1.25
2023-03-07T17:21:15.816Z,1.75
2023-03-07T17:22:20.740Z,2.50
2023-03-07T17:23:24.341Z,1.50
2023-03-07T17:24:28.522Z,2.50
2023-03-07T17:25:32.230Z,3.00
2023-03-07T17:26:35.404Z,3.50
2023-03-07T17:27:38.582Z,3.50
2023-03-07T17:28:41.967Z,3.00
2023-03-07T17:29:45.564Z,3.50
2023-03-07T17:30:49.007Z,2.75
2023-03-07T17:31:52.352Z,3.25
2023-03-07T17:32:55.723Z,2.50
2023-03-07T17:33:59.348Z,2.50
2023-03-07T17:35:02.729Z,2.25
2023-03-07T17:36:06.338Z,1.75
2023-03-07T17:37:09.891Z,2.50
2023-03-07T17:38:13.587Z,2.50
2023-03-07T17:39:17.783Z,1.50
2023-03-07T17:40:21.315Z,1.00
2023-03-07T17:41:25.694Z,1.25
2023-03-07T17:42:28.870Z,1.00
2023-03-07T17:43:32.694Z,1.50
2023-03-07T17:44:36.405Z,2.25
2023-03-07T17:45:39.750Z,2.50
2023-03-07T17:46:43.457Z,3.00
2023-03-07T17:47:46.984Z,4.00
2023-03-07T17:48:50.864Z,1.50
2023-03-07T17:49:54.331Z,2.75
2023-03-07T17:51:04.237Z,2.75
2023-03-07T17:52:07.731Z,3.00
2023-03-07T17:53:11.237Z,4.00
2023-03-07T17:54:15.159Z,2.50
2023-03-07T17:55:19.042Z,1.75
2023-03-07T17:56:22.088Z,1.00
2023-03-07T17:57:25.071Z,2.50
2023-03-07T17:58:31.622Z,3.00
2023-03-07T17:59:35.715Z,2.50
2023-03-07T18:00:40.781Z,2.50
2023-03-07T18:01:52.871Z,1.50
2023-03-07T18:02:56.006Z,1.25
2023-03-07T18:03:59.221Z,3.00
2023-03-07T18:05:02.651Z,3.50
2023-03-07T18:06:06.122Z,2.50
2023-03-07T18:07:09.916Z,3.00
2023-03-07T18:08:13.129Z,2.25
2023-03-07T18:09:17.099Z,2.50
2023-03-07T18:10:20.703Z,2.50
2023-03-07T18:11:25.188Z,2.50
2023-03-07T18:12:28.653Z,2.50
2023-03-07T18:13:32.473Z,3.00
2023-03-07T18:14:36.074Z,2.50
2023-03-07T18:15:40.582Z,3.00
2023-03-07T18:16:43.974Z,3.00
2023-03-07T18:17:49.164Z,2.50
2023-03-07T18:18:59.498Z,2.00
2023-03-07T18:19:58.137Z,3.00
2023-03-07T18:21:01.833Z,3.00
2023-03-07T18:22:12.217Z,3.00
2023-03-07T18:23:16.620Z,3.00
2023-03-07T18:24:20.543Z,2.50
2023-03-07T18:25:25.557Z,2.25
2023-03-07T18:26:29.189Z,2.00
2023-03-07T18:27:32.798Z,2.00
2023-03-07T18:28:41.226Z,2.50
2023-03-07T18:29:45.915Z,2.00
2023-03-07T18:30:49.800Z,3.50
2023-03-07T18:31:53.242Z,3.50
2023-03-07T18:32:56.696Z,2.50
2023-03-07T18:34:00.183Z,4.50
2023-03-07T18:35:03.864Z,4.25
2023-03-07T18:36:10.169Z,4.00
2023-03-07T18:37:13.840Z,3.50
2023-03-07T18:38:17.496Z,4.00
2023-03-07T18:39:21.238Z,3.50
2023-03-07T18:41:47.514Z,2.00
2023-03-07T18:42:51.052Z,3.00
2023-03-07T18:43:55.029Z,3.00
2023-03-07T18:44:58.417Z,2.00
2023-03-07T18:46:02.921Z,2.75
2023-03-07T18:47:06.399Z,3.00
2023-03-07T18:48:17.797Z,3.00
2023-03-07T18:49:21.160Z,3.00
2023-03-07T18:50:25.099Z,2.50
2023-03-07T18:51:29.355Z,2.75
2023-03-07T18:52:32.701Z,3.00
2023-03-07T18:53:35.861Z,3.25
2023-03-07T18:54:39.249Z,3.50
2023-03-07T18:55:42.627Z,3.50
2023-03-07T18:56:56.610Z,2.50
2023-03-07T18:58:02.539Z,4.50
2023-03-07T18:59:05.777Z,5.00
2023-03-07T19:00:09.392Z,4.50
2023-03-07T19:01:14.160Z,3.50
2023-03-07T19:02:19.354Z,3.75
2023-03-07T19:03:29.232Z,3.50
2023-03-07T19:04:33.840Z,3.50
2023-03-07T19:05:37.284Z,4.25
2023-03-07T19:06:40.848Z,4.00
2023-03-07T19:07:44.362Z,2.50
2023-03-07T19:08:48.142Z,4.25
2023-03-07T19:09:57.167Z,3.50
2023-03-07T19:11:00.659Z,2.50
2023-03-07T19:12:04.340Z,3.50
2023-03-07T19:13:09.451Z,3.00
2023-03-07T19:14:13.972Z,2.50
2023-03-07T19:16:43.498Z,4.75
2023-03-07T19:17:46.664Z,3.00
2023-03-07T19:18:50.567Z,4.00
2023-03-07T19:19:54.168Z,4.00
2023-03-07T19:20:58.777Z,3.00
2023-03-07T19:22:04.319Z,4.00
2023-03-07T19:23:07.630Z,3.50
2023-03-07T19:24:11.099Z,2.50
2023-03-07T19:25:24.766Z,3.50
2023-03-07T19:26:29.436Z,4.25
2023-03-07T19:27:32.819Z,3.00
2023-03-07T19:28:36.641Z,4.25
2023-03-07T19:29:40.000Z,5.50
2023-03-07T19:32:04.023Z,3.50
2023-03-07T19:33:11.916Z,3.25
2023-03-07T19:34:15.778Z,4.00
2023-03-07T19:35:19.274Z,4.25
2023-03-07T19:37:43.559Z,3.75
2023-03-07T19:40:11.391Z,2.50
2023-03-07T19:41:17.392Z,4.75
2023-03-07T19:42:22.200Z,4.50
2023-03-07T19:44:46.870Z,5.00
2023-03-07T19:45:50.396Z,5.00
2023-03-07T19:46:55.832Z,4.50
2023-03-07T19:48:00.010Z,5.00
2023-03-07T19:49:08.362Z,4.50
2023-03-07T19:50:12.097Z,6.50